sensor_id;sensor_type;location;lat;lon;timestamp;P1;durP1;ratioP1;P2;durP2;ratioP2
76566;SDS011;65428;53.194;6.132;2023-06-04T00:01:01;8.55;;;4.40;;
76566;SDS011;65428;53.194;6.132;2023-06-04T00:03:27;6.43;;;3.58;;
76566;SDS011;65428;53.194;6.132;2023-06-04T00:05:53;7.93;;;4.50;;
76566;SDS011;65428;53.194;6.132;2023-06-04T00:08:19;7.73;;;3.43;;
76566;SDS011;65428;53.194;6.132;2023-06-04T00:10:44;6.72;;;4.70;;
76566;SDS011;65428;53.194;6.132;2023-06-04T00:13:10;5.57;;;3.53;;
76566;SDS011;65428;53.194;6.132;2023-06-04T00:15:36;5.75;;;3.20;;
76566;SDS011;65428;53.194;6.132;2023-06-04T00:18:01;7.55;;;3.70;;
76566;SDS011;65428;53.194;6.132;2023-06-04T00:20:27;8.53;;;4.07;;
76566;SDS011;65428;53.194;6.132;2023-06-04T00:22:53;8.48;;;4.75;;
76566;SDS011;65428;53.194;6.132;2023-06-04T00:25:18;11.70;;;5.63;;
76566;SDS011;65428;53.194;6.132;2023-06-04T00:27:44;10.17;;;4.87;;
76566;SDS011;65428;53.194;6.132;2023-06-04T00:30:10;7.97;;;4.80;;
76566;SDS011;65428;53.194;6.132;2023-06-04T00:32:36;7.40;;;3.40;;
76566;SDS011;65428;53.194;6.132;2023-06-04T00:35:01;8.13;;;4.43;;
76566;SDS011;65428;53.194;6.132;2023-06-04T00:37:28;8.23;;;5.55;;
76566;SDS011;65428;53.194;6.132;2023-06-04T00:39:54;10.07;;;5.10;;
76566;SDS011;65428;53.194;6.132;2023-06-04T00:42:20;9.67;;;4.90;;
76566;SDS011;65428;53.194;6.132;2023-06-04T00:44:46;9.48;;;4.60;;
76566;SDS011;65428;53.194;6.132;2023-06-04T00:47:13;9.50;;;5.93;;
76566;SDS011;65428;53.194;6.132;2023-06-04T00:49:39;8.47;;;5.20;;
76566;SDS011;65428;53.194;6.132;2023-06-04T00:52:07;9.15;;;4.85;;
76566;SDS011;65428;53.194;6.132;2023-06-04T00:54:34;7.80;;;4.63;;
76566;SDS011;65428;53.194;6.132;2023-06-04T00:57:00;8.75;;;5.00;;
76566;SDS011;65428;53.194;6.132;2023-06-04T00:59:26;8.77;;;4.40;;
76566;SDS011;65428;53.194;6.132;2023-06-04T01:04:36;8.00;;;4.60;;
76566;SDS011;65428;53.194;6.132;2023-06-04T01:07:09;11.17;;;4.80;;
76566;SDS011;65428;53.194;6.132;2023-06-04T01:09:38;12.48;;;7.47;;
76566;SDS011;65428;53.194;6.132;2023-06-04T01:12:04;12.37;;;6.20;;
76566;SDS011;65428;53.194;6.132;2023-06-04T01:14:33;10.38;;;4.80;;
76566;SDS011;65428;53.194;6.132;2023-06-04T01:17:04;11.83;;;5.97;;
76566;SDS011;65428;53.194;6.132;2023-06-04T01:25:28;9.75;;;6.00;;
76566;SDS011;65428;53.194;6.132;2023-06-04T01:28:04;10.68;;;6.07;;
76566;SDS011;65428;53.194;6.132;2023-06-04T01:30:32;8.07;;;5.57;;
76566;SDS011;65428;53.194;6.132;2023-06-04T01:33:00;9.05;;;4.95;;
76566;SDS011;65428;53.194;6.132;2023-06-04T01:35:27;9.82;;;4.68;;
76566;SDS011;65428;53.194;6.132;2023-06-04T01:37:53;10.70;;;6.00;;
76566;SDS011;65428;53.194;6.132;2023-06-04T01:40:20;8.45;;;6.25;;
76566;SDS011;65428;53.194;6.132;2023-06-04T01:42:46;7.07;;;4.03;;
76566;SDS011;65428;53.194;6.132;2023-06-04T01:45:11;4.50;;;2.50;;
76566;SDS011;65428;53.194;6.132;2023-06-04T01:47:37;7.07;;;5.37;;
76566;SDS011;65428;53.194;6.132;2023-06-04T01:50:06;9.00;;;5.95;;
76566;SDS011;65428;53.194;6.132;2023-06-04T01:52:35;7.40;;;4.25;;
76566;SDS011;65428;53.194;6.132;2023-06-04T01:55:02;6.80;;;4.20;;
76566;SDS011;65428;53.194;6.132;2023-06-04T01:57:29;9.40;;;5.60;;
76566;SDS011;65428;53.194;6.132;2023-06-04T01:59:55;9.70;;;6.00;;
76566;SDS011;65428;53.194;6.132;2023-06-04T02:02:21;7.10;;;5.03;;
76566;SDS011;65428;53.194;6.132;2023-06-04T02:04:47;6.45;;;4.45;;
76566;SDS011;65428;53.194;6.132;2023-06-04T02:07:12;5.97;;;3.80;;
76566;SDS011;65428;53.194;6.132;2023-06-04T02:09:42;7.15;;;4.50;;
76566;SDS011;65428;53.194;6.132;2023-06-04T02:12:08;9.15;;;5.63;;
76566;SDS011;65428;53.194;6.132;2023-06-04T02:14:34;9.57;;;5.88;;
76566;SDS011;65428;53.194;6.132;2023-06-04T02:16:59;6.47;;;5.30;;
76566;SDS011;65428;53.194;6.132;2023-06-04T02:19:25;9.03;;;5.97;;
76566;SDS011;65428;53.194;6.132;2023-06-04T02:21:54;9.57;;;5.90;;
76566;SDS011;65428;53.194;6.132;2023-06-04T02:24:20;7.60;;;4.30;;
76566;SDS011;65428;53.194;6.132;2023-06-04T02:26:46;5.80;;;3.97;;
76566;SDS011;65428;53.194;6.132;2023-06-04T02:29:11;5.00;;;3.63;;
76566;SDS011;65428;53.194;6.132;2023-06-04T02:31:37;7.07;;;5.13;;
76566;SDS011;65428;53.194;6.132;2023-06-04T02:34:03;5.45;;;4.40;;
76566;SDS011;65428;53.194;6.132;2023-06-04T02:36:28;5.43;;;4.53;;
76566;SDS011;65428;53.194;6.132;2023-06-04T02:38:55;6.68;;;5.07;;
76566;SDS011;65428;53.194;6.132;2023-06-04T02:41:21;6.90;;;4.90;;
76566;SDS011;65428;53.194;6.132;2023-06-04T02:43:48;7.25;;;4.18;;
76566;SDS011;65428;53.194;6.132;2023-06-04T02:46:14;7.65;;;5.13;;
76566;SDS011;65428;53.194;6.132;2023-06-04T02:48:40;6.07;;;5.15;;
76566;SDS011;65428;53.194;6.132;2023-06-04T02:51:06;9.38;;;5.50;;
76566;SDS011;65428;53.194;6.132;2023-06-04T02:53:35;9.98;;;6.28;;
76566;SDS011;65428;53.194;6.132;2023-06-04T02:56:01;10.23;;;6.30;;
76566;SDS011;65428;53.194;6.132;2023-06-04T02:58:27;8.57;;;5.17;;
76566;SDS011;65428;53.194;6.132;2023-06-04T03:00:54;6.32;;;4.10;;
76566;SDS011;65428;53.194;6.132;2023-06-04T03:03:20;6.82;;;4.40;;
76566;SDS011;65428;53.194;6.132;2023-06-04T03:05:47;8.30;;;5.10;;
76566;SDS011;65428;53.194;6.132;2023-06-04T03:08:13;6.03;;;3.73;;
76566;SDS011;65428;53.194;6.132;2023-06-04T03:10:38;6.53;;;4.97;;
76566;SDS011;65428;53.194;6.132;2023-06-04T03:13:04;8.63;;;5.15;;
76566;SDS011;65428;53.194;6.132;2023-06-04T03:15:30;10.35;;;5.15;;
76566;SDS011;65428;53.194;6.132;2023-06-04T03:17:55;8.23;;;5.60;;
76566;SDS011;65428;53.194;6.132;2023-06-04T03:20:22;8.23;;;5.70;;
76566;SDS011;65428;53.194;6.132;2023-06-04T03:22:49;7.07;;;4.82;;
76566;SDS011;65428;53.194;6.132;2023-06-04T03:25:16;8.88;;;6.20;;
76566;SDS011;65428;53.194;6.132;2023-06-04T03:27:43;8.70;;;4.93;;
76566;SDS011;65428;53.194;6.132;2023-06-04T03:30:09;6.35;;;4.60;;
76566;SDS011;65428;53.194;6.132;2023-06-04T03:32:35;5.85;;;4.35;;
76566;SDS011;65428;53.194;6.132;2023-06-04T03:35:01;5.70;;;4.03;;
76566;SDS011;65428;53.194;6.132;2023-06-04T03:37:28;5.90;;;5.07;;
76566;SDS011;65428;53.194;6.132;2023-06-04T03:39:53;5.37;;;4.03;;
76566;SDS011;65428;53.194;6.132;2023-06-04T03:42:19;6.20;;;4.63;;
76566;SDS011;65428;53.194;6.132;2023-06-04T03:44:45;5.37;;;4.83;;
76566;SDS011;65428;53.194;6.132;2023-06-04T03:47:11;8.52;;;5.40;;
76566;SDS011;65428;53.194;6.132;2023-06-04T03:49:37;6.63;;;5.50;;
76566;SDS011;65428;53.194;6.132;2023-06-04T03:52:02;7.27;;;5.63;;
76566;SDS011;65428;53.194;6.132;2023-06-04T03:54:28;8.98;;;5.72;;
76566;SDS011;65428;53.194;6.132;2023-06-04T03:56:54;6.07;;;5.47;;
76566;SDS011;65428;53.194;6.132;2023-06-04T03:59:19;6.47;;;5.03;;
76566;SDS011;65428;53.194;6.132;2023-06-04T04:01:45;9.05;;;6.07;;
76566;SDS011;65428;53.194;6.132;2023-06-04T04:04:11;10.77;;;6.60;;
76566;SDS011;65428;53.194;6.132;2023-06-04T04:06:37;5.80;;;5.20;;
76566;SDS011;65428;53.194;6.132;2023-06-04T04:09:02;5.53;;;4.87;;
76566;SDS011;65428;53.194;6.132;2023-06-04T04:11:29;12.13;;;8.23;;
76566;SDS011;65428;53.194;6.132;2023-06-04T04:13:55;11.30;;;8.80;;
76566;SDS011;65428;53.194;6.132;2023-06-04T04:16:21;9.07;;;7.65;;
76566;SDS011;65428;53.194;6.132;2023-06-04T04:18:47;9.65;;;8.52;;
76566;SDS011;65428;53.194;6.132;2023-06-04T04:21:12;8.13;;;5.80;;
76566;SDS011;65428;53.194;6.132;2023-06-04T04:23:39;9.23;;;7.05;;
76566;SDS011;65428;53.194;6.132;2023-06-04T04:26:07;7.65;;;5.85;;
76566;SDS011;65428;53.194;6.132;2023-06-04T04:28:33;11.70;;;9.23;;
76566;SDS011;65428;53.194;6.132;2023-06-04T04:30:59;9.60;;;7.93;;
76566;SDS011;65428;53.194;6.132;2023-06-04T04:33:27;7.85;;;6.80;;
76566;SDS011;65428;53.194;6.132;2023-06-04T04:35:57;11.68;;;8.48;;
76566;SDS011;65428;53.194;6.132;2023-06-04T04:38:24;8.52;;;7.63;;
76566;SDS011;65428;53.194;6.132;2023-06-04T04:40:50;12.48;;;9.60;;
76566;SDS011;65428;53.194;6.132;2023-06-04T04:43:38;10.63;;;8.40;;
76566;SDS011;65428;53.194;6.132;2023-06-04T04:46:06;11.20;;;8.13;;
76566;SDS011;65428;53.194;6.132;2023-06-04T04:48:32;13.18;;;10.20;;
76566;SDS011;65428;53.194;6.132;2023-06-04T04:50:58;14.40;;;11.60;;
76566;SDS011;65428;53.194;6.132;2023-06-04T04:53:23;13.52;;;9.93;;
76566;SDS011;65428;53.194;6.132;2023-06-04T04:55:49;14.43;;;10.80;;
76566;SDS011;65428;53.194;6.132;2023-06-04T04:58:15;15.03;;;11.20;;
76566;SDS011;65428;53.194;6.132;2023-06-04T05:00:41;15.85;;;11.25;;
76566;SDS011;65428;53.194;6.132;2023-06-04T05:03:06;15.00;;;12.40;;
76566;SDS011;65428;53.194;6.132;2023-06-04T05:05:32;18.27;;;13.00;;
76566;SDS011;65428;53.194;6.132;2023-06-04T05:07:58;16.65;;;12.82;;
76566;SDS011;65428;53.194;6.132;2023-06-04T05:10:24;27.47;;;14.77;;
76566;SDS011;65428;53.194;6.132;2023-06-04T05:12:50;22.05;;;15.43;;
76566;SDS011;65428;53.194;6.132;2023-06-04T05:15:20;20.75;;;14.40;;
76566;SDS011;65428;53.194;6.132;2023-06-04T05:17:46;21.55;;;14.50;;
76566;SDS011;65428;53.194;6.132;2023-06-04T05:20:12;18.77;;;13.85;;
76566;SDS011;65428;53.194;6.132;2023-06-04T05:22:38;18.13;;;12.93;;
76566;SDS011;65428;53.194;6.132;2023-06-04T05:25:04;18.17;;;12.63;;
76566;SDS011;65428;53.194;6.132;2023-06-04T05:27:33;17.67;;;11.88;;
76566;SDS011;65428;53.194;6.132;2023-06-04T05:30:00;14.27;;;10.60;;
76566;SDS011;65428;53.194;6.132;2023-06-04T05:32:28;18.17;;;8.93;;
76566;SDS011;65428;53.194;6.132;2023-06-04T05:34:54;16.70;;;9.20;;
76566;SDS011;65428;53.194;6.132;2023-06-04T05:37:23;13.43;;;7.38;;
76566;SDS011;65428;53.194;6.132;2023-06-04T05:39:53;13.07;;;8.27;;
76566;SDS011;65428;53.194;6.132;2023-06-04T05:42:20;13.82;;;8.32;;
76566;SDS011;65428;53.194;6.132;2023-06-04T05:44:46;16.40;;;7.07;;
76566;SDS011;65428;53.194;6.132;2023-06-04T05:47:11;14.63;;;7.80;;
76566;SDS011;65428;53.194;6.132;2023-06-04T05:49:37;13.30;;;6.97;;
76566;SDS011;65428;53.194;6.132;2023-06-04T05:52:03;10.07;;;5.17;;
76566;SDS011;65428;53.194;6.132;2023-06-04T05:54:29;10.43;;;4.88;;
76566;SDS011;65428;53.194;6.132;2023-06-04T05:56:55;14.02;;;5.25;;
76566;SDS011;65428;53.194;6.132;2023-06-04T05:59:21;10.23;;;4.28;;
76566;SDS011;65428;53.194;6.132;2023-06-04T06:01:47;9.95;;;4.07;;
76566;SDS011;65428;53.194;6.132;2023-06-04T06:04:13;10.80;;;3.78;;
76566;SDS011;65428;53.194;6.132;2023-06-04T06:06:41;9.13;;;3.40;;
76566;SDS011;65428;53.194;6.132;2023-06-04T06:09:09;10.90;;;3.72;;
76566;SDS011;65428;53.194;6.132;2023-06-04T06:11:35;9.88;;;2.75;;
76566;SDS011;65428;53.194;6.132;2023-06-04T06:14:01;7.57;;;2.28;;
76566;SDS011;65428;53.194;6.132;2023-06-04T06:16:27;10.38;;;2.75;;
76566;SDS011;65428;53.194;6.132;2023-06-04T06:18:53;10.10;;;2.70;;
76566;SDS011;65428;53.194;6.132;2023-06-04T06:21:19;10.97;;;2.93;;
76566;SDS011;65428;53.194;6.132;2023-06-04T06:23:45;10.40;;;2.53;;
76566;SDS011;65428;53.194;6.132;2023-06-04T06:26:10;9.45;;;2.10;;
76566;SDS011;65428;53.194;6.132;2023-06-04T06:28:37;7.47;;;2.17;;
76566;SDS011;65428;53.194;6.132;2023-06-04T06:31:02;8.57;;;2.28;;
76566;SDS011;65428;53.194;6.132;2023-06-04T06:33:28;8.40;;;2.20;;
76566;SDS011;65428;53.194;6.132;2023-06-04T06:35:54;8.98;;;2.13;;
76566;SDS011;65428;53.194;6.132;2023-06-04T06:38:19;6.93;;;2.00;;
76566;SDS011;65428;53.194;6.132;2023-06-04T06:40:45;8.05;;;2.22;;
76566;SDS011;65428;53.194;6.132;2023-06-04T06:43:10;7.77;;;1.90;;
76566;SDS011;65428;53.194;6.132;2023-06-04T06:45:36;6.88;;;1.60;;
76566;SDS011;65428;53.194;6.132;2023-06-04T06:48:02;5.18;;;1.20;;
76566;SDS011;65428;53.194;6.132;2023-06-04T06:50:28;6.45;;;1.52;;
76566;SDS011;65428;53.194;6.132;2023-06-04T06:52:54;8.80;;;1.67;;
76566;SDS011;65428;53.194;6.132;2023-06-04T06:55:20;5.77;;;1.67;;
76566;SDS011;65428;53.194;6.132;2023-06-04T06:57:46;5.97;;;1.30;;
76566;SDS011;65428;53.194;6.132;2023-06-04T07:00:11;7.03;;;1.20;;
76566;SDS011;65428;53.194;6.132;2023-06-04T07:02:37;6.13;;;1.30;;
76566;SDS011;65428;53.194;6.132;2023-06-04T07:05:03;5.28;;;1.00;;
76566;SDS011;65428;53.194;6.132;2023-06-04T07:07:29;6.38;;;1.27;;
76566;SDS011;65428;53.194;6.132;2023-06-04T07:09:54;5.43;;;1.23;;
76566;SDS011;65428;53.194;6.132;2023-06-04T07:12:20;6.70;;;1.42;;
76566;SDS011;65428;53.194;6.132;2023-06-04T07:14:46;4.63;;;1.30;;
76566;SDS011;65428;53.194;6.132;2023-06-04T07:17:12;5.63;;;1.23;;
76566;SDS011;65428;53.194;6.132;2023-06-04T07:19:37;6.40;;;1.25;;
76566;SDS011;65428;53.194;6.132;2023-06-04T07:22:03;5.33;;;1.30;;
76566;SDS011;65428;53.194;6.132;2023-06-04T07:24:29;5.15;;;1.13;;
76566;SDS011;65428;53.194;6.132;2023-06-04T07:26:54;4.87;;;1.10;;
76566;SDS011;65428;53.194;6.132;2023-06-04T07:29:20;4.68;;;0.90;;
76566;SDS011;65428;53.194;6.132;2023-06-04T07:31:45;5.43;;;0.97;;
76566;SDS011;65428;53.194;6.132;2023-06-04T07:34:11;4.90;;;0.90;;
76566;SDS011;65428;53.194;6.132;2023-06-04T07:36:37;4.30;;;0.80;;
76566;SDS011;65428;53.194;6.132;2023-06-04T07:39:02;4.03;;;0.80;;
76566;SDS011;65428;53.194;6.132;2023-06-04T07:41:31;5.28;;;0.80;;
76566;SDS011;65428;53.194;6.132;2023-06-04T07:43:56;4.65;;;0.70;;
76566;SDS011;65428;53.194;6.132;2023-06-04T07:46:22;3.80;;;0.77;;
76566;SDS011;65428;53.194;6.132;2023-06-04T07:48:47;3.73;;;0.83;;
76566;SDS011;65428;53.194;6.132;2023-06-04T07:51:13;5.65;;;0.88;;
76566;SDS011;65428;53.194;6.132;2023-06-04T07:53:39;3.75;;;0.70;;
76566;SDS011;65428;53.194;6.132;2023-06-04T07:56:06;3.65;;;0.65;;
76566;SDS011;65428;53.194;6.132;2023-06-04T07:58:32;2.67;;;0.63;;
76566;SDS011;65428;53.194;6.132;2023-06-04T08:00:57;4.65;;;1.00;;
76566;SDS011;65428;53.194;6.132;2023-06-04T08:03:23;4.10;;;0.80;;
76566;SDS011;65428;53.194;6.132;2023-06-04T08:05:49;3.38;;;0.63;;
76566;SDS011;65428;53.194;6.132;2023-06-04T08:08:15;3.85;;;0.95;;
76566;SDS011;65428;53.194;6.132;2023-06-04T08:10:40;3.90;;;0.60;;
76566;SDS011;65428;53.194;6.132;2023-06-04T08:13:06;3.50;;;0.65;;
76566;SDS011;65428;53.194;6.132;2023-06-04T08:15:33;4.35;;;1.00;;
76566;SDS011;65428;53.194;6.132;2023-06-04T08:17:59;5.30;;;1.20;;
76566;SDS011;65428;53.194;6.132;2023-06-04T08:20:24;3.80;;;0.80;;
76566;SDS011;65428;53.194;6.132;2023-06-04T08:22:50;3.92;;;0.73;;
76566;SDS011;65428;53.194;6.132;2023-06-04T08:25:16;4.10;;;0.70;;
76566;SDS011;65428;53.194;6.132;2023-06-04T08:27:42;4.68;;;1.05;;
76566;SDS011;65428;53.194;6.132;2023-06-04T08:30:08;4.35;;;0.90;;
76566;SDS011;65428;53.194;6.132;2023-06-04T08:32:34;3.33;;;0.60;;
76566;SDS011;65428;53.194;6.132;2023-06-04T08:35:00;4.65;;;0.70;;
76566;SDS011;65428;53.194;6.132;2023-06-04T08:37:26;5.03;;;0.77;;
76566;SDS011;65428;53.194;6.132;2023-06-04T08:39:51;4.47;;;0.80;;
76566;SDS011;65428;53.194;6.132;2023-06-04T08:42:27;3.22;;;0.63;;
76566;SDS011;65428;53.194;6.132;2023-06-04T08:44:58;4.32;;;0.98;;
76566;SDS011;65428;53.194;6.132;2023-06-04T08:47:24;4.03;;;0.60;;
76566;SDS011;65428;53.194;6.132;2023-06-04T08:49:53;3.22;;;0.70;;
76566;SDS011;65428;53.194;6.132;2023-06-04T08:52:23;2.70;;;0.65;;
76566;SDS011;65428;53.194;6.132;2023-06-04T08:54:50;2.67;;;0.63;;
76566;SDS011;65428;53.194;6.132;2023-06-04T08:57:20;2.83;;;0.60;;
76566;SDS011;65428;53.194;6.132;2023-06-04T08:59:46;3.45;;;0.80;;
76566;SDS011;65428;53.194;6.132;2023-06-04T09:02:15;2.50;;;0.68;;
76566;SDS011;65428;53.194;6.132;2023-06-04T09:04:42;3.92;;;1.00;;
76566;SDS011;65428;53.194;6.132;2023-06-04T09:07:10;3.85;;;0.65;;
76566;SDS011;65428;53.194;6.132;2023-06-04T09:09:39;3.80;;;0.60;;
76566;SDS011;65428;53.194;6.132;2023-06-04T09:12:10;3.97;;;0.60;;
76566;SDS011;65428;53.194;6.132;2023-06-04T09:14:40;2.97;;;0.60;;
76566;SDS011;65428;53.194;6.132;2023-06-04T09:17:06;2.45;;;0.50;;
76566;SDS011;65428;53.194;6.132;2023-06-04T09:19:31;3.97;;;0.53;;
76566;SDS011;65428;53.194;6.132;2023-06-04T09:21:58;3.92;;;0.77;;
76566;SDS011;65428;53.194;6.132;2023-06-04T09:24:40;2.97;;;0.67;;
76566;SDS011;65428;53.194;6.132;2023-06-04T09:27:14;3.67;;;0.70;;
76566;SDS011;65428;53.194;6.132;2023-06-04T09:34:51;2.85;;;0.52;;
76566;SDS011;65428;53.194;6.132;2023-06-04T09:37:18;4.25;;;0.68;;
76566;SDS011;65428;53.194;6.132;2023-06-04T09:39:52;3.63;;;0.75;;
76566;SDS011;65428;53.194;6.132;2023-06-04T09:42:19;3.10;;;0.80;;
76566;SDS011;65428;53.194;6.132;2023-06-04T09:44:44;3.10;;;0.65;;
76566;SDS011;65428;53.194;6.132;2023-06-04T09:47:13;3.40;;;0.80;;
76566;SDS011;65428;53.194;6.132;2023-06-04T09:49:41;3.53;;;0.82;;
76566;SDS011;65428;53.194;6.132;2023-06-04T09:52:07;1.75;;;0.47;;
76566;SDS011;65428;53.194;6.132;2023-06-04T09:54:36;3.70;;;0.75;;
76566;SDS011;65428;53.194;6.132;2023-06-04T09:57:04;3.42;;;0.70;;
76566;SDS011;65428;53.194;6.132;2023-06-04T09:59:35;2.65;;;0.70;;
76566;SDS011;65428;53.194;6.132;2023-06-04T10:02:04;2.38;;;0.50;;
76566;SDS011;65428;53.194;6.132;2023-06-04T10:04:32;3.10;;;0.70;;
76566;SDS011;65428;53.194;6.132;2023-06-04T10:07:02;3.40;;;0.60;;
76566;SDS011;65428;53.194;6.132;2023-06-04T10:09:30;3.03;;;0.60;;
76566;SDS011;65428;53.194;6.132;2023-06-04T10:11:57;2.00;;;0.50;;
76566;SDS011;65428;53.194;6.132;2023-06-04T10:14:25;3.08;;;0.60;;
76566;SDS011;65428;53.194;6.132;2023-06-04T10:16:54;3.63;;;0.57;;
76566;SDS011;65428;53.194;6.132;2023-06-04T10:19:22;2.20;;;0.47;;
76566;SDS011;65428;53.194;6.132;2023-06-04T10:21:49;2.08;;;0.60;;
76566;SDS011;65428;53.194;6.132;2023-06-04T10:24:15;2.83;;;0.60;;
76566;SDS011;65428;53.194;6.132;2023-06-04T10:26:41;3.05;;;0.63;;
76566;SDS011;65428;53.194;6.132;2023-06-04T10:29:07;2.83;;;0.70;;
76566;SDS011;65428;53.194;6.132;2023-06-04T10:31:34;2.27;;;0.50;;
76566;SDS011;65428;53.194;6.132;2023-06-04T10:34:02;3.83;;;0.60;;
76566;SDS011;65428;53.194;6.132;2023-06-04T10:36:28;2.97;;;0.50;;
76566;SDS011;65428;53.194;6.132;2023-06-04T10:38:54;2.50;;;0.50;;
76566;SDS011;65428;53.194;6.132;2023-06-04T10:41:20;2.13;;;0.57;;
76566;SDS011;65428;53.194;6.132;2023-06-04T10:43:51;2.47;;;0.50;;
76566;SDS011;65428;53.194;6.132;2023-06-04T10:46:25;2.63;;;0.57;;
76566;SDS011;65428;53.194;6.132;2023-06-04T10:48:51;2.58;;;0.57;;
76566;SDS011;65428;53.194;6.132;2023-06-04T10:51:30;2.05;;;0.50;;
76566;SDS011;65428;53.194;6.132;2023-06-04T10:53:58;2.43;;;0.60;;
76566;SDS011;65428;53.194;6.132;2023-06-04T10:56:31;2.72;;;0.50;;
76566;SDS011;65428;53.194;6.132;2023-06-04T10:59:00;2.90;;;0.50;;
76566;SDS011;65428;53.194;6.132;2023-06-04T11:01:37;2.85;;;0.68;;
76566;SDS011;65428;53.194;6.132;2023-06-04T11:04:03;2.97;;;0.43;;
76566;SDS011;65428;53.194;6.132;2023-06-04T11:06:28;2.60;;;0.60;;
76566;SDS011;65428;53.194;6.132;2023-06-04T11:09:04;2.35;;;0.60;;
76566;SDS011;65428;53.194;6.132;2023-06-04T11:11:31;3.25;;;0.60;;
76566;SDS011;65428;53.194;6.132;2023-06-04T11:14:10;2.72;;;0.60;;
76566;SDS011;65428;53.194;6.132;2023-06-04T11:16:37;1.95;;;0.45;;
76566;SDS011;65428;53.194;6.132;2023-06-04T11:19:04;2.30;;;0.50;;
76566;SDS011;65428;53.194;6.132;2023-06-04T11:21:30;3.20;;;0.57;;
76566;SDS011;65428;53.194;6.132;2023-06-04T11:23:58;2.78;;;0.68;;
76566;SDS011;65428;53.194;6.132;2023-06-04T11:26:31;2.87;;;0.50;;
76566;SDS011;65428;53.194;6.132;2023-06-04T11:28:57;2.40;;;0.57;;
76566;SDS011;65428;53.194;6.132;2023-06-04T11:31:23;3.70;;;0.80;;
76566;SDS011;65428;53.194;6.132;2023-06-04T11:33:50;2.78;;;0.52;;
76566;SDS011;65428;53.194;6.132;2023-06-04T11:36:28;2.80;;;0.60;;
76566;SDS011;65428;53.194;6.132;2023-06-04T11:39:00;2.35;;;0.55;;
76566;SDS011;65428;53.194;6.132;2023-06-04T11:41:27;2.40;;;0.50;;
76566;SDS011;65428;53.194;6.132;2023-06-04T11:43:55;2.20;;;0.50;;
76566;SDS011;65428;53.194;6.132;2023-06-04T11:46:22;2.50;;;0.50;;
76566;SDS011;65428;53.194;6.132;2023-06-04T11:48:50;1.90;;;0.50;;
76566;SDS011;65428;53.194;6.132;2023-06-04T11:51:16;2.38;;;0.50;;
76566;SDS011;65428;53.194;6.132;2023-06-04T11:53:42;2.17;;;0.60;;
76566;SDS011;65428;53.194;6.132;2023-06-04T11:56:08;2.30;;;0.60;;
76566;SDS011;65428;53.194;6.132;2023-06-04T11:58:34;1.85;;;0.50;;
76566;SDS011;65428;53.194;6.132;2023-06-04T12:01:00;2.00;;;0.50;;
76566;SDS011;65428;53.194;6.132;2023-06-04T12:08:46;2.90;;;0.57;;
76566;SDS011;65428;53.194;6.132;2023-06-04T12:11:28;2.25;;;0.60;;
76566;SDS011;65428;53.194;6.132;2023-06-04T12:13:59;3.78;;;0.43;;
76566;SDS011;65428;53.194;6.132;2023-06-04T12:16:26;2.70;;;0.50;;
76566;SDS011;65428;53.194;6.132;2023-06-04T12:18:52;2.13;;;0.50;;
76566;SDS011;65428;53.194;6.132;2023-06-04T12:21:41;2.83;;;0.60;;
76566;SDS011;65428;53.194;6.132;2023-06-04T12:26:38;1.58;;;0.40;;
76566;SDS011;65428;53.194;6.132;2023-06-04T12:29:09;3.20;;;0.50;;
76566;SDS011;65428;53.194;6.132;2023-06-04T12:31:37;1.83;;;0.50;;
76566;SDS011;65428;53.194;6.132;2023-06-04T12:34:03;2.75;;;0.50;;
76566;SDS011;65428;53.194;6.132;2023-06-04T12:36:29;1.93;;;0.43;;
76566;SDS011;65428;53.194;6.132;2023-06-04T12:38:57;2.17;;;0.60;;
76566;SDS011;65428;53.194;6.132;2023-06-04T12:41:24;2.30;;;0.65;;
76566;SDS011;65428;53.194;6.132;2023-06-04T12:43:50;2.55;;;0.60;;
76566;SDS011;65428;53.194;6.132;2023-06-04T12:46:16;1.88;;;0.43;;
76566;SDS011;65428;53.194;6.132;2023-06-04T12:48:42;1.77;;;0.40;;
76566;SDS011;65428;53.194;6.132;2023-06-04T12:51:08;2.25;;;0.40;;
76566;SDS011;65428;53.194;6.132;2023-06-04T12:53:37;1.92;;;0.50;;
76566;SDS011;65428;53.194;6.132;2023-06-04T12:56:04;3.78;;;0.60;;
76566;SDS011;65428;53.194;6.132;2023-06-04T12:58:30;2.87;;;0.60;;
76566;SDS011;65428;53.194;6.132;2023-06-04T13:00:56;1.83;;;0.40;;
76566;SDS011;65428;53.194;6.132;2023-06-04T13:03:21;2.00;;;0.50;;
76566;SDS011;65428;53.194;6.132;2023-06-04T13:05:47;2.38;;;0.45;;
76566;SDS011;65428;53.194;6.132;2023-06-04T13:08:13;2.22;;;0.50;;
76566;SDS011;65428;53.194;6.132;2023-06-04T13:10:40;2.10;;;0.50;;
76566;SDS011;65428;53.194;6.132;2023-06-04T13:13:05;1.53;;;0.40;;
76566;SDS011;65428;53.194;6.132;2023-06-04T13:15:31;1.65;;;0.40;;
76566;SDS011;65428;53.194;6.132;2023-06-04T13:17:56;2.88;;;0.50;;
76566;SDS011;65428;53.194;6.132;2023-06-04T13:20:22;2.47;;;0.43;;
76566;SDS011;65428;53.194;6.132;2023-06-04T13:22:47;2.03;;;0.40;;
76566;SDS011;65428;53.194;6.132;2023-06-04T13:25:13;2.40;;;0.50;;
76566;SDS011;65428;53.194;6.132;2023-06-04T13:27:40;2.42;;;0.40;;
76566;SDS011;65428;53.194;6.132;2023-06-04T13:30:05;1.85;;;0.50;;
76566;SDS011;65428;53.194;6.132;2023-06-04T13:32:32;3.08;;;0.52;;
76566;SDS011;65428;53.194;6.132;2023-06-04T13:34:57;1.47;;;0.40;;
76566;SDS011;65428;53.194;6.132;2023-06-04T13:37:23;1.60;;;0.50;;
76566;SDS011;65428;53.194;6.132;2023-06-04T13:39:49;2.30;;;0.50;;
76566;SDS011;65428;53.194;6.132;2023-06-04T13:42:14;1.90;;;0.60;;
76566;SDS011;65428;53.194;6.132;2023-06-04T13:44:40;2.43;;;0.60;;
76566;SDS011;65428;53.194;6.132;2023-06-04T13:47:06;1.98;;;0.40;;
76566;SDS011;65428;53.194;6.132;2023-06-04T13:49:34;3.70;;;0.80;;
76566;SDS011;65428;53.194;6.132;2023-06-04T13:52:00;2.45;;;0.40;;
76566;SDS011;65428;53.194;6.132;2023-06-04T13:54:26;1.85;;;0.30;;
76566;SDS011;65428;53.194;6.132;2023-06-04T13:56:51;2.17;;;0.47;;
76566;SDS011;65428;53.194;6.132;2023-06-04T13:59:17;2.93;;;0.50;;
76566;SDS011;65428;53.194;6.132;2023-06-04T14:01:43;2.72;;;0.55;;
76566;SDS011;65428;53.194;6.132;2023-06-04T14:04:08;3.20;;;0.40;;
76566;SDS011;65428;53.194;6.132;2023-06-04T14:06:36;2.42;;;0.57;;
76566;SDS011;65428;53.194;6.132;2023-06-04T14:09:02;2.20;;;0.50;;
76566;SDS011;65428;53.194;6.132;2023-06-04T14:11:29;2.55;;;0.47;;
76566;SDS011;65428;53.194;6.132;2023-06-04T14:13:55;2.90;;;0.40;;
76566;SDS011;65428;53.194;6.132;2023-06-04T14:16:21;3.63;;;0.50;;
76566;SDS011;65428;53.194;6.132;2023-06-04T14:18:46;2.33;;;0.50;;
76566;SDS011;65428;53.194;6.132;2023-06-04T14:21:12;2.53;;;0.55;;
76566;SDS011;65428;53.194;6.132;2023-06-04T14:23:37;2.60;;;0.50;;
76566;SDS011;65428;53.194;6.132;2023-06-04T14:26:03;3.47;;;0.60;;
76566;SDS011;65428;53.194;6.132;2023-06-04T14:28:29;1.92;;;0.60;;
76566;SDS011;65428;53.194;6.132;2023-06-04T14:30:54;1.90;;;0.55;;
76566;SDS011;65428;53.194;6.132;2023-06-04T14:33:20;3.20;;;0.50;;
76566;SDS011;65428;53.194;6.132;2023-06-04T14:35:46;2.33;;;0.50;;
76566;SDS011;65428;53.194;6.132;2023-06-04T14:38:12;3.65;;;0.57;;
76566;SDS011;65428;53.194;6.132;2023-06-04T14:40:39;2.55;;;0.60;;
76566;SDS011;65428;53.194;6.132;2023-06-04T14:43:06;3.47;;;0.52;;
76566;SDS011;65428;53.194;6.132;2023-06-04T14:45:32;2.58;;;0.60;;
76566;SDS011;65428;53.194;6.132;2023-06-04T14:47:58;2.40;;;0.50;;
76566;SDS011;65428;53.194;6.132;2023-06-04T14:50:24;3.55;;;0.75;;
76566;SDS011;65428;53.194;6.132;2023-06-04T14:52:49;3.57;;;0.60;;
76566;SDS011;65428;53.194;6.132;2023-06-04T14:55:15;3.72;;;0.60;;
76566;SDS011;65428;53.194;6.132;2023-06-04T14:57:40;2.90;;;0.60;;
76566;SDS011;65428;53.194;6.132;2023-06-04T15:00:06;2.30;;;0.45;;
76566;SDS011;65428;53.194;6.132;2023-06-04T15:02:32;3.65;;;0.75;;
76566;SDS011;65428;53.194;6.132;2023-06-04T15:04:58;3.73;;;0.77;;